createdAt,value
2016-10-25T00:00:48.827Z,995.9
2016-10-25T00:01:57.536Z,995.92
2016-10-25T00:03:06.575Z,995.91
2016-10-25T00:04:15.273Z,995.89
2016-10-25T00:05:23.969Z,995.89
2016-10-25T00:06:32.680Z,995.85
2016-10-25T00:07:41.715Z,995.87
2016-10-25T00:08:50.734Z,995.91
2016-10-25T00:10:00.008Z,995.92
2016-10-25T00:11:08.710Z,995.88
2016-10-25T00:12:18.088Z,995.91
2016-10-25T00:13:27.121Z,995.95
2016-10-25T00:14:35.852Z,995.92
2016-10-25T00:15:44.586Z,995.93
2016-10-25T00:16:53.301Z,995.93
2016-10-25T00:18:02.333Z,995.94
2016-10-25T00:19:11.034Z,995.94
2016-10-25T00:20:20.086Z,995.93
2016-10-25T00:21:29.157Z,995.97
2016-10-25T00:22:37.857Z,995.97
2016-10-25T00:23:46.891Z,995.97
2016-10-25T00:24:55.594Z,995.97
2016-10-25T00:26:04.315Z,995.95
2016-10-25T00:27:13.351Z,996
2016-10-25T00:28:22.047Z,995.95
2016-10-25T00:29:30.742Z,995.96
2016-10-25T00:30:39.780Z,995.99
2016-10-25T00:31:49.246Z,995.93
2016-10-25T00:32:58.597Z,995.97
2016-10-25T00:34:07.633Z,995.93
2016-10-25T00:35:16.354Z,995.92
2016-10-25T00:36:25.048Z,995.95
2016-10-25T00:37:33.746Z,995.98
2016-10-25T00:38:42.443Z,995.96
2016-10-25T00:39:51.481Z,995.95
2016-10-25T00:41:00.183Z,995.96
2016-10-25T00:42:09.753Z,995.92
2016-10-25T00:43:18.805Z,995.92
2016-10-25T00:44:28.146Z,995.91
2016-10-25T00:45:36.843Z,995.88
2016-10-25T00:46:46.080Z,995.86
2016-10-25T00:47:54.785Z,995.87
2016-10-25T00:49:03.482Z,995.87
2016-10-25T00:50:12.513Z,995.84
2016-10-25T00:51:21.212Z,995.84
2016-10-25T00:52:30.244Z,995.89
2016-10-25T00:53:38.946Z,995.83
2016-10-25T00:54:47.849Z,995.81
2016-10-25T00:55:56.548Z,995.82
2016-10-25T00:57:05.271Z,995.81
2016-10-25T00:58:14.645Z,995.85
2016-10-25T00:59:23.656Z,995.81
2016-10-25T01:00:32.347Z,995.84
2016-10-25T01:01:41.382Z,995.78
2016-10-25T01:02:50.451Z,995.83
2016-10-25T01:03:59.159Z,995.79
2016-10-25T01:05:08.396Z,995.81
2016-10-25T01:06:17.406Z,995.78
2016-10-25T01:07:26.647Z,995.8
2016-10-25T01:08:35.342Z,995.8
2016-10-25T01:09:44.374Z,995.79
2016-10-25T01:10:53.071Z,995.77
2016-10-25T01:12:02.102Z,995.79
2016-10-25T01:13:10.814Z,995.76
2016-10-25T01:14:19.510Z,995.77
2016-10-25T01:15:28.540Z,995.74
2016-10-25T01:16:37.812Z,995.73
2016-10-25T01:17:46.529Z,995.73
2016-10-25T01:18:55.574Z,995.78
2016-10-25T01:20:04.928Z,995.74
2016-10-25T01:21:13.972Z,995.74
2016-10-25T01:22:22.670Z,995.71
2016-10-25T01:23:31.908Z,995.74
2016-10-25T01:24:40.623Z,995.74
2016-10-25T01:25:49.323Z,995.71
2016-10-25T01:26:58.055Z,995.71
2016-10-25T01:28:07.072Z,995.73
2016-10-25T01:29:16.102Z,995.7
2016-10-25T01:30:24.802Z,995.68
2016-10-25T01:31:33.505Z,995.7
2016-10-25T01:32:42.207Z,995.65
2016-10-25T01:33:51.470Z,995.68
2016-10-25T01:35:00.479Z,995.63
2016-10-25T01:36:09.174Z,995.67
2016-10-25T01:37:17.922Z,995.65
2016-10-25T01:38:26.934Z,995.66
2016-10-25T01:39:35.672Z,995.62
2016-10-25T01:40:44.934Z,995.66
2016-10-25T01:41:53.944Z,995.66
2016-10-25T01:43:03.029Z,995.61
2016-10-25T01:44:12.075Z,995.63
2016-10-25T01:45:21.017Z,995.61
2016-10-25T01:46:29.717Z,995.58
2016-10-25T01:47:38.420Z,995.54
2016-10-25T01:48:47.123Z,995.55
2016-10-25T01:49:55.813Z,995.55
2016-10-25T01:51:05.182Z,995.49
2016-10-25T01:52:14.211Z,995.55
2016-10-25T01:53:23.245Z,995.51
2016-10-25T01:54:32.298Z,995.52
2016-10-25T01:55:41.016Z,995.49
2016-10-25T01:56:50.365Z,995.46
2016-10-25T01:57:59.740Z,995.46
2016-10-25T01:59:08.770Z,995.46
2016-10-25T02:00:17.470Z,995.44
2016-10-25T02:01:26.174Z,995.44
2016-10-25T02:02:35.208Z,995.49
2016-10-25T02:03:43.905Z,995.44
2016-10-25T02:04:52.951Z,995.42
2016-10-25T02:06:01.746Z,995.44
2016-10-25T02:07:10.779Z,995.46
2016-10-25T02:08:20.018Z,995.44
2016-10-25T02:09:28.718Z,995.45
2016-10-25T02:10:37.417Z,995.45
2016-10-25T02:11:46.171Z,995.43
2016-10-25T02:12:54.870Z,995.44
2016-10-25T02:14:03.886Z,995.43
2016-10-25T02:15:12.925Z,995.4
2016-10-25T02:16:21.961Z,995.39
2016-10-25T02:17:31.004Z,995.41
2016-10-25T02:18:40.244Z,995.4
2016-10-25T02:19:48.944Z,995.42
2016-10-25T02:20:58.317Z,995.4
2016-10-25T02:22:07.034Z,995.37
2016-10-25T02:23:16.410Z,995.37
2016-10-25T02:24:25.105Z,995.38
2016-10-25T02:25:34.154Z,995.35
2016-10-25T02:26:43.224Z,995.31
2016-10-25T02:27:52.258Z,995.36
2016-10-25T02:29:01.291Z,995.37
2016-10-25T02:30:10.329Z,995.35
2016-10-25T02:31:19.030Z,995.38
2016-10-25T02:32:28.069Z,995.37
2016-10-25T02:33:37.097Z,995.35
2016-10-25T02:34:45.800Z,995.33
2016-10-25T02:35:54.496Z,995.31
2016-10-25T02:37:03.191Z,995.35
2016-10-25T02:38:11.895Z,995.39
2016-10-25T02:39:20.594Z,995.32
2016-10-25T02:40:29.838Z,995.35
2016-10-25T02:41:38.535Z,995.31
2016-10-25T02:42:47.230Z,995.31
2016-10-25T02:43:56.262Z,995.32
2016-10-25T02:45:05.504Z,995.32
2016-10-25T02:46:14.400Z,995.35
2016-10-25T02:47:23.434Z,995.34
2016-10-25T02:48:32.187Z,995.34
2016-10-25T02:49:40.891Z,995.37
2016-10-25T02:50:49.589Z,995.36
2016-10-25T02:51:58.832Z,995.4
2016-10-25T02:53:07.530Z,995.38
2016-10-25T02:54:16.555Z,995.38
2016-10-25T02:55:25.252Z,995.41
2016-10-25T02:56:33.944Z,995.37
2016-10-25T02:57:42.980Z,995.37
2016-10-25T02:58:51.716Z,995.37
2016-10-25T03:00:00.423Z,995.37
2016-10-25T03:01:09.155Z,995.36
2016-10-25T03:02:17.895Z,995.34
2016-10-25T03:03:27.446Z,995.36
2016-10-25T03:04:36.146Z,995.33
2016-10-25T03:05:45.513Z,995.34
2016-10-25T03:06:54.211Z,995.27
2016-10-25T03:08:03.248Z,995.27
2016-10-25T03:09:12.260Z,995.27
2016-10-25T03:10:21.292Z,995.25
2016-10-25T03:11:30.664Z,995.27
2016-10-25T03:12:39.368Z,995.26
2016-10-25T03:13:48.094Z,995.26
2016-10-25T03:14:57.142Z,995.23
2016-10-25T03:16:05.837Z,995.23
2016-10-25T03:17:14.555Z,995.22
2016-10-25T03:18:24.263Z,995.26
2016-10-25T03:19:33.606Z,995.21
2016-10-25T03:20:42.641Z,995.21
2016-10-25T03:21:51.339Z,995.25
2016-10-25T03:23:00.035Z,995.27
2016-10-25T03:24:08.733Z,995.22
2016-10-25T03:25:17.441Z,995.22
2016-10-25T03:26:26.492Z,995.19
2016-10-25T03:27:36.067Z,995.2
2016-10-25T03:28:44.985Z,995.2
2016-10-25T03:29:53.993Z,995.2
2016-10-25T03:31:02.695Z,995.17
2016-10-25T03:32:12.286Z,995.16
2016-10-25T03:33:21.654Z,995.14
2016-10-25T03:34:30.683Z,995.17
2016-10-25T03:35:39.379Z,995.15
2016-10-25T03:36:48.091Z,995.12
2016-10-25T03:37:56.789Z,995.18
2016-10-25T03:39:05.485Z,995.12
2016-10-25T03:40:14.196Z,995.14
2016-10-25T03:41:22.894Z,995.13
2016-10-25T03:42:31.591Z,995.15
2016-10-25T03:43:40.680Z,995.16
2016-10-25T03:44:49.694Z,995.12
2016-10-25T03:45:59.333Z,995.11
2016-10-25T03:47:08.364Z,995.14
2016-10-25T03:48:17.067Z,995.12
2016-10-25T03:49:25.764Z,995.1
2016-10-25T03:50:34.461Z,995.16
2016-10-25T03:51:43.494Z,995.15
2016-10-25T03:52:52.216Z,995.12
2016-10-25T03:54:01.226Z,995.07
2016-10-25T03:55:10.262Z,995.14
2016-10-25T03:56:18.958Z,995.1
2016-10-25T03:57:27.651Z,995.09
2016-10-25T03:58:36.704Z,995.09
2016-10-25T03:59:45.410Z,995.12
2016-10-25T04:00:54.109Z,995.1
2016-10-25T04:02:03.390Z,995.12
2016-10-25T04:03:12.112Z,995.12
2016-10-25T04:04:21.127Z,995.11
2016-10-25T04:05:30.187Z,995.1
2016-10-25T04:06:39.195Z,995.06
2016-10-25T04:07:47.898Z,995.08
2016-10-25T04:08:56.966Z,995.09
2016-10-25T04:10:05.658Z,995.06
2016-10-25T04:11:14.384Z,995.09
2016-10-25T04:12:23.423Z,995.07
2016-10-25T04:13:32.457Z,995.09
2016-10-25T04:14:41.490Z,995.1
2016-10-25T04:15:50.209Z,995.07
2016-10-25T04:16:58.922Z,995.11
2016-10-25T04:18:07.951Z,995.07
2016-10-25T04:19:16.688Z,995.03
2016-10-25T04:20:26.053Z,995.02
2016-10-25T04:21:34.749Z,995.01
2016-10-25T04:22:43.446Z,995.04
2016-10-25T04:23:52.681Z,995.01
2016-10-25T04:25:01.384Z,994.99
2016-10-25T04:26:10.425Z,994.97
2016-10-25T04:27:19.121Z,995.01
2016-10-25T04:28:28.148Z,995.02
2016-10-25T04:29:36.880Z,995.03
2016-10-25T04:30:45.912Z,995.06
2016-10-25T04:31:54.633Z,995.06
2016-10-25T04:33:04.356Z,995.09
2016-10-25T04:34:13.609Z,995.1
2016-10-25T04:35:22.618Z,995.05
2016-10-25T04:36:31.352Z,995.08
2016-10-25T04:37:40.381Z,995.08
2016-10-25T04:38:49.077Z,995.08
2016-10-25T04:39:58.133Z,995.11
2016-10-25T04:41:07.478Z,995.09
2016-10-25T04:42:16.514Z,995.13
2016-10-25T04:43:25.557Z,995.11
2016-10-25T04:44:34.595Z,995.1
2016-10-25T04:45:43.293Z,995.11
2016-10-25T04:46:53.116Z,995.09
2016-10-25T04:48:02.148Z,995.1
2016-10-25T04:49:11.200Z,995.07
2016-10-25T04:50:20.648Z,995.11
2016-10-25T04:51:29.354Z,995.1
2016-10-25T04:52:38.954Z,995.1
2016-10-25T04:53:47.991Z,995.13
2016-10-25T04:54:57.004Z,995.12
2016-10-25T04:56:06.096Z,995.1
2016-10-25T04:57:15.441Z,995.1
2016-10-25T04:58:24.367Z,995.11
2016-10-25T04:59:33.405Z,995.13
2016-10-25T05:00:42.417Z,995.09
2016-10-25T05:01:51.453Z,995.09
2016-10-25T05:03:00.161Z,995.09
2016-10-25T05:04:08.858Z,995.03
2016-10-25T05:05:17.555Z,995.06
2016-10-25T05:06:26.291Z,995.04
2016-10-25T05:07:36.069Z,995.06
2016-10-25T05:08:44.776Z,995.07
2016-10-25T05:09:53.844Z,995.06
2016-10-25T05:11:03.187Z,995.08
2016-10-25T05:12:12.425Z,995.08
2016-10-25T05:13:22.095Z,995.08
2016-10-25T05:14:31.784Z,995.11
2016-10-25T05:15:40.819Z,995.08
2016-10-25T05:16:49.517Z,995.08
2016-10-25T05:17:58.215Z,995.08
2016-10-25T05:19:07.242Z,995.1
2016-10-25T05:20:16.477Z,995.07
2016-10-25T05:21:25.189Z,995.09
2016-10-25T05:22:33.911Z,995.06
2016-10-25T05:23:42.920Z,995.02
2016-10-25T05:24:52.156Z,995.02
2016-10-25T05:26:01.192Z,995.01
2016-10-25T05:27:09.892Z,995.03
2016-10-25T05:28:18.948Z,995.03
2016-10-25T05:29:28.330Z,994.99
2016-10-25T05:30:37.033Z,994.98
2016-10-25T05:31:46.095Z,994.98
2016-10-25T05:32:55.108Z,995.02
2016-10-25T05:34:04.142Z,995.02
2016-10-25T05:35:13.196Z,994.98
2016-10-25T05:36:22.570Z,995.03
2016-10-25T05:37:31.667Z,995.05
2016-10-25T05:38:40.685Z,995
2016-10-25T05:39:49.717Z,995.05
2016-10-25T05:40:58.412Z,995.07
2016-10-25T05:42:07.196Z,995.07
2016-10-25T05:43:16.238Z,994.99
2016-10-25T05:44:24.928Z,995
2016-10-25T05:45:33.975Z,995.02
2016-10-25T05:46:42.755Z,994.99
2016-10-25T05:47:51.762Z,994.97
2016-10-25T05:49:00.461Z,995
2016-10-25T05:50:09.195Z,995
2016-10-25T05:51:18.093Z,994.95
2016-10-25T05:52:27.130Z,994.97
2016-10-25T05:53:35.832Z,995.02
2016-10-25T05:54:44.535Z,994.96
2016-10-25T05:55:53.575Z,994.95
2016-10-25T05:57:02.585Z,994.97
2016-10-25T05:58:11.289Z,994.96
2016-10-25T05:59:19.992Z,994.97
2016-10-25T06:00:29.030Z,994.99
2016-10-25T06:01:37.725Z,995.01
2016-10-25T06:02:46.431Z,995.01
2016-10-25T06:03:55.378Z,995.01
2016-10-25T06:05:04.083Z,995.03
2016-10-25T06:06:12.780Z,995
2016-10-25T06:07:21.474Z,995.01
2016-10-25T06:08:30.508Z,995.06
2016-10-25T06:09:39.209Z,995.06
2016-10-25T06:10:47.942Z,995
2016-10-25T06:11:56.638Z,995.05
2016-10-25T06:13:05.367Z,995.02
2016-10-25T06:14:14.061Z,995.03
2016-10-25T06:15:22.757Z,995.02
2016-10-25T06:16:31.455Z,995
2016-10-25T06:17:40.488Z,995.04
2016-10-25T06:18:49.518Z,995.07
2016-10-25T06:19:58.210Z,995.05
2016-10-25T06:21:07.451Z,995.08
2016-10-25T06:22:16.487Z,995.09
2016-10-25T06:23:25.753Z,995.11
2016-10-25T06:24:34.802Z,995.08
2016-10-25T06:25:44.174Z,995.14
2016-10-25T06:26:53.417Z,995.1
2016-10-25T06:28:02.115Z,995.08
2016-10-25T06:29:10.813Z,995.09
2016-10-25T06:30:19.514Z,995.06
2016-10-25T06:31:28.255Z,995.06
2016-10-25T06:32:36.953Z,995.06
2016-10-25T06:33:45.655Z,995.04
2016-10-25T06:34:54.361Z,995.01
2016-10-25T06:36:03.085Z,994.99
2016-10-25T06:37:12.120Z,995.04
2016-10-25T06:38:21.151Z,995.03
2016-10-25T06:39:29.876Z,995
2016-10-25T06:40:39.219Z,995.02
2016-10-25T06:41:47.907Z,995.02
2016-10-25T06:42:56.599Z,995.02
2016-10-25T06:44:05.652Z,995
2016-10-25T06:45:14.656Z,995.01
2016-10-25T06:46:23.397Z,995.02
2016-10-25T06:47:32.180Z,995.03
2016-10-25T06:48:40.877Z,994.97
2016-10-25T06:49:49.577Z,994.99
2016-10-25T06:50:58.623Z,994.97
2016-10-25T06:52:08.030Z,994.98
2016-10-25T06:53:17.047Z,994.99
2016-10-25T06:54:25.741Z,995.02
2016-10-25T06:55:34.444Z,995.01
2016-10-25T06:56:43.163Z,995.01
2016-10-25T06:57:52.181Z,994.99
2016-10-25T06:59:00.876Z,994.98
2016-10-25T07:00:09.954Z,995.04
2016-10-25T07:01:19.326Z,995.03
2016-10-25T07:02:28.358Z,995.06
2016-10-25T07:03:37.932Z,995.1
2016-10-25T07:04:47.302Z,995.1
2016-10-25T07:05:56.333Z,995.06
2016-10-25T07:07:05.711Z,995.11
2016-10-25T07:08:14.481Z,995.07
2016-10-25T07:09:23.488Z,995.06
2016-10-25T07:10:32.189Z,995.1
2016-10-25T07:11:40.887Z,995.09
2016-10-25T07:12:50.189Z,995.09
2016-10-25T07:13:59.201Z,995.09
2016-10-25T07:15:07.897Z,995.09
2016-10-25T07:16:16.847Z,995.08
2016-10-25T07:17:25.542Z,995.08
2016-10-25T07:18:34.239Z,995.09
2016-10-25T07:19:42.939Z,995.09
2016-10-25T07:20:51.643Z,995.11
2016-10-25T07:22:00.479Z,995.14
2016-10-25T07:23:09.175Z,995.19
2016-10-25T07:24:17.877Z,995.16
2016-10-25T07:25:26.576Z,995.16
2016-10-25T07:26:35.271Z,995.18
2016-10-25T07:27:44.056Z,995.19
2016-10-25T07:28:53.119Z,995.2
2016-10-25T07:30:01.820Z,995.19
2016-10-25T07:31:11.196Z,995.19
2016-10-25T07:32:19.898Z,995.23
2016-10-25T07:33:28.645Z,995.21
2016-10-25T07:34:37.677Z,995.27
2016-10-25T07:35:46.707Z,995.26
2016-10-25T07:36:55.403Z,995.27
2016-10-25T07:38:04.099Z,995.23
2016-10-25T07:39:12.847Z,995.21
2016-10-25T07:40:21.544Z,995.25
2016-10-25T07:41:30.266Z,995.24
2016-10-25T07:42:39.592Z,995.21
2016-10-25T07:43:48.284Z,995.18
2016-10-25T07:44:57.705Z,995.19
2016-10-25T07:46:06.968Z,995.17
2016-10-25T07:47:16.082Z,995.2
2016-10-25T07:48:25.115Z,995.19
2016-10-25T07:49:33.814Z,995.19
2016-10-25T07:50:42.965Z,995.19
2016-10-25T07:51:51.663Z,995.19
2016-10-25T07:53:00.564Z,995.19
2016-10-25T07:54:09.260Z,995.22
2016-10-25T07:55:17.955Z,995.19
2016-10-25T07:56:27.227Z,995.21
2016-10-25T07:57:36.266Z,995.27
2016-10-25T07:58:44.966Z,995.21
2016-10-25T07:59:53.663Z,995.19
2016-10-25T08:01:02.364Z,995.19
2016-10-25T08:02:11.402Z,995.21
2016-10-25T08:03:20.098Z,995.2
2016-10-25T08:04:28.796Z,995.22
2016-10-25T08:05:38.160Z,995.2
2016-10-25T08:06:46.857Z,995.22
2016-10-25T08:07:56.206Z,995.19
2016-10-25T08:09:04.899Z,995.26
2016-10-25T08:10:13.595Z,995.24
2016-10-25T08:11:22.299Z,995.26
2016-10-25T08:12:30.996Z,995.27
2016-10-25T08:13:39.693Z,995.23
2016-10-25T08:14:49.065Z,995.23
2016-10-25T08:15:58.093Z,995.26
2016-10-25T08:17:06.791Z,995.24
2016-10-25T08:18:15.823Z,995.25
2016-10-25T08:19:25.522Z,995.22
2016-10-25T08:20:34.219Z,995.2
2016-10-25T08:21:42.911Z,995.2
2016-10-25T08:22:51.639Z,995.17
2016-10-25T08:24:00.662Z,995.15
2016-10-25T08:25:09.362Z,995.09
2016-10-25T08:26:18.937Z,995.13
2016-10-25T08:27:27.972Z,995.14
2016-10-25T08:28:36.678Z,995.16
2016-10-25T08:29:45.417Z,995.11
2016-10-25T08:30:54.113Z,995.17
2016-10-25T08:32:02.814Z,995.15
2016-10-25T08:33:11.511Z,995.13
2016-10-25T08:34:20.212Z,995.15
2016-10-25T08:35:28.919Z,995.15
2016-10-25T08:36:37.623Z,995.15
2016-10-25T08:37:46.995Z,995.14
2016-10-25T08:38:56.980Z,995.15
2016-10-25T08:40:05.681Z,995.14
2016-10-25T08:41:14.717Z,995.16
2016-10-25T08:42:23.420Z,995.13
2016-10-25T08:43:32.439Z,995.14
2016-10-25T08:44:41.467Z,995.15
2016-10-25T08:45:50.177Z,995.07
2016-10-25T08:46:58.877Z,995.14
2016-10-25T08:48:08.247Z,995.14
2016-10-25T08:49:16.972Z,995.14
2016-10-25T08:50:26.006Z,995.13
2016-10-25T08:51:35.012Z,995.13
2016-10-25T08:52:44.043Z,995.13
2016-10-25T08:53:52.757Z,995.15
2016-10-25T08:55:01.490Z,995.13
2016-10-25T08:56:10.189Z,995.09
2016-10-25T08:57:18.884Z,995.1
2016-10-25T08:58:27.587Z,995.13
2016-10-25T08:59:36.284Z,995.13
2016-10-25T09:00:44.983Z,995.14
2016-10-25T09:01:53.678Z,995.15
2016-10-25T09:03:02.379Z,995.12
2016-10-25T09:04:11.081Z,995.12
2016-10-25T09:05:19.779Z,995.09
2016-10-25T09:06:28.476Z,995.11
2016-10-25T09:07:37.186Z,995.13
2016-10-25T09:08:45.884Z,995.2
2016-10-25T09:09:54.584Z,995.11
2016-10-25T09:11:03.283Z,995.13
2016-10-25T09:12:11.979Z,995.12
2016-10-25T09:13:20.676Z,995.11
2016-10-25T09:14:29.374Z,995.13
2016-10-25T09:15:38.077Z,995.14
2016-10-25T09:16:46.776Z,995.12
2016-10-25T09:17:55.479Z,995.13
2016-10-25T09:19:04.217Z,995.12
2016-10-25T09:20:12.929Z,995.11
2016-10-25T09:21:21.628Z,995.09
2016-10-25T09:22:30.325Z,995.15
2016-10-25T09:23:39.020Z,995.12
2016-10-25T09:24:47.717Z,995.1
2016-10-25T09:25:56.764Z,995.13
2016-10-25T09:27:05.483Z,995.13
2016-10-25T09:28:14.209Z,995.12
2016-10-25T09:29:22.901Z,995.11
2016-10-25T09:30:31.605Z,995.11
2016-10-25T09:31:40.307Z,995.14
2016-10-25T09:32:49.004Z,995.12
2016-10-25T09:33:57.702Z,995.14
2016-10-25T09:35:06.409Z,995.12
2016-10-25T09:36:15.119Z,995.13
2016-10-25T09:37:23.815Z,995.15
2016-10-25T09:38:32.510Z,995.16
2016-10-25T09:39:41.231Z,995.17
2016-10-25T09:40:49.938Z,995.16
2016-10-25T09:41:58.635Z,995.1
2016-10-25T09:43:07.339Z,995.19
2016-10-25T09:44:16.039Z,995.15
2016-10-25T09:45:24.769Z,995.16
2016-10-25T09:46:33.464Z,995.13
2016-10-25T09:47:42.179Z,995.13
2016-10-25T09:48:50.875Z,995.15
2016-10-25T09:49:59.573Z,995.16
2016-10-25T09:51:08.282Z,995.19
2016-10-25T09:52:16.980Z,995.19
2016-10-25T09:53:25.681Z,995.14
2016-10-25T09:54:34.381Z,995.14
2016-10-25T09:55:43.077Z,995.12
2016-10-25T09:56:51.773Z,995.15
2016-10-25T09:58:00.478Z,995.15
2016-10-25T09:59:09.176Z,995.15
2016-10-25T10:00:17.876Z,995.11
2016-10-25T10:01:26.581Z,995.11
2016-10-25T10:02:35.297Z,995.08
2016-10-25T10:03:43.993Z,995.1
2016-10-25T10:04:52.705Z,995.03
2016-10-25T10:06:01.406Z,995.03
2016-10-25T10:07:10.109Z,995.03
2016-10-25T10:08:18.814Z,995.02
2016-10-25T10:09:27.520Z,994.96
2016-10-25T10:10:36.218Z,994.99
2016-10-25T10:11:44.917Z,994.95
2016-10-25T10:12:53.617Z,994.96
2016-10-25T10:14:02.315Z,994.93
2016-10-25T10:15:11.021Z,994.92
2016-10-25T10:16:19.716Z,994.9
2016-10-25T10:17:28.414Z,994.93
2016-10-25T10:18:37.111Z,994.9
2016-10-25T10:19:45.816Z,994.9
2016-10-25T10:20:54.516Z,994.9
2016-10-25T10:22:03.216Z,994.92
2016-10-25T10:23:11.914Z,994.93
2016-10-25T10:24:20.622Z,994.9
2016-10-25T10:25:29.319Z,994.9
2016-10-25T10:26:38.045Z,994.95
2016-10-25T10:27:46.743Z,994.91
2016-10-25T10:28:55.439Z,994.95
2016-10-25T10:30:04.141Z,994.9
2016-10-25T10:31:12.848Z,994.89
2016-10-25T10:32:21.554Z,994.91
2016-10-25T10:33:30.253Z,994.9
2016-10-25T10:34:38.949Z,994.86
2016-10-25T10:35:47.695Z,994.87
2016-10-25T10:36:56.402Z,994.88
2016-10-25T10:38:05.156Z,994.82
2016-10-25T10:39:13.895Z,994.85
2016-10-25T10:40:22.617Z,994.86
2016-10-25T10:41:31.327Z,994.88
2016-10-25T10:42:40.034Z,994.86
2016-10-25T10:43:48.733Z,994.87
2016-10-25T10:44:57.434Z,994.92
2016-10-25T10:46:06.144Z,994.88
2016-10-25T10:47:15.201Z,994.93
2016-10-25T10:48:23.902Z,994.94
2016-10-25T10:49:32.604Z,994.92
2016-10-25T10:50:41.304Z,994.9
2016-10-25T10:51:50.007Z,994.91
2016-10-25T10:52:58.705Z,994.92
2016-10-25T10:54:07.485Z,994.9
2016-10-25T10:55:16.185Z,994.85
2016-10-25T10:56:24.888Z,994.85
2016-10-25T10:57:33.586Z,994.88
2016-10-25T10:58:42.288Z,994.88
2016-10-25T10:59:50.985Z,994.85
2016-10-25T11:00:59.695Z,994.84
2016-10-25T11:02:08.399Z,994.84
2016-10-25T11:03:17.097Z,994.83
2016-10-25T11:04:25.799Z,994.79
2016-10-25T11:05:34.497Z,994.78
2016-10-25T11:06:43.194Z,994.71
2016-10-25T11:07:51.893Z,994.75
2016-10-25T11:09:00.595Z,994.71
2016-10-25T11:10:09.288Z,994.71
2016-10-25T11:11:17.987Z,994.66
2016-10-25T11:12:26.699Z,994.67
2016-10-25T11:13:35.397Z,994.71
2016-10-25T11:14:44.098Z,994.66
2016-10-25T11:15:52.800Z,994.68
2016-10-25T11:17:01.499Z,994.64
2016-10-25T11:18:10.245Z,994.66
2016-10-25T11:19:18.940Z,994.64
2016-10-25T11:20:27.683Z,994.66
2016-10-25T11:21:36.705Z,994.69
2016-10-25T11:22:45.412Z,994.68
2016-10-25T11:23:54.113Z,994.68
2016-10-25T11:25:02.811Z,994.64
2016-10-25T11:26:11.510Z,994.66
2016-10-25T11:27:20.210Z,994.65
2016-10-25T11:28:28.912Z,994.65
2016-10-25T11:29:37.649Z,994.67
2016-10-25T11:30:46.356Z,994.64
2016-10-25T11:31:55.056Z,994.61
2016-10-25T11:33:03.753Z,994.64
2016-10-25T11:34:12.461Z,994.65
2016-10-25T11:35:21.155Z,994.61
2016-10-25T11:36:29.853Z,994.63
2016-10-25T11:37:38.548Z,994.61
2016-10-25T11:38:47.277Z,994.62
2016-10-25T11:39:55.976Z,994.63
2016-10-25T11:41:04.678Z,994.63
2016-10-25T11:42:13.688Z,994.6
2016-10-25T11:43:22.387Z,994.63
2016-10-25T11:44:31.089Z,994.64
2016-10-25T11:45:39.795Z,994.62
2016-10-25T11:46:48.503Z,994.59
2016-10-25T11:47:57.205Z,994.58
2016-10-25T11:49:05.939Z,994.58
2016-10-25T11:50:14.638Z,994.59
2016-10-25T11:51:23.338Z,994.54
2016-10-25T11:52:32.047Z,994.58
2016-10-25T11:53:40.741Z,994.59
2016-10-25T11:54:49.440Z,994.56
2016-10-25T11:55:58.149Z,994.54
2016-10-25T11:57:06.904Z,994.53
2016-10-25T11:58:15.604Z,994.51
2016-10-25T11:59:24.309Z,994.52
2016-10-25T12:00:33.325Z,994.55
2016-10-25T12:01:42.034Z,994.53
2016-10-25T12:02:50.983Z,994.5
2016-10-25T12:03:59.686Z,994.5
2016-10-25T12:05:08.395Z,994.5
2016-10-25T12:06:17.110Z,994.5
2016-10-25T12:07:25.822Z,994.5
2016-10-25T12:08:34.573Z,994.49
2016-10-25T12:09:43.268Z,994.51
2016-10-25T12:10:51.971Z,994.46
2016-10-25T12:12:00.670Z,994.48
2016-10-25T12:13:09.375Z,994.49
2016-10-25T12:14:18.161Z,994.47
2016-10-25T12:15:26.872Z,994.44
2016-10-25T12:16:35.591Z,994.49
2016-10-25T12:17:44.309Z,994.45
2016-10-25T12:18:53.002Z,994.46
2016-10-25T12:20:01.745Z,994.46
2016-10-25T12:21:10.472Z,994.43
2016-10-25T12:22:19.495Z,994.43
2016-10-25T12:23:28.192Z,994.4
2016-10-25T12:24:36.889Z,994.41
2016-10-25T12:25:45.638Z,994.44
2016-10-25T12:26:54.333Z,994.44
2016-10-25T12:28:03.033Z,994.38
2016-10-25T12:29:11.735Z,994.42
2016-10-25T12:30:20.466Z,994.4
2016-10-25T12:31:29.215Z,994.42
2016-10-25T12:32:37.912Z,994.4
2016-10-25T12:33:46.607Z,994.42
2016-10-25T12:34:55.304Z,994.38
2016-10-25T12:36:04.010Z,994.35
2016-10-25T12:37:12.776Z,994.38
2016-10-25T12:38:21.471Z,994.4
2016-10-25T12:39:30.180Z,994.39
2016-10-25T12:40:38.877Z,994.36
2016-10-25T12:41:47.601Z,994.39
2016-10-25T12:42:56.359Z,994.4
2016-10-25T12:44:05.059Z,994.39
2016-10-25T12:45:13.781Z,994.34
2016-10-25T12:46:22.805Z,994.34
2016-10-25T12:47:31.505Z,994.36
2016-10-25T12:48:40.253Z,994.35
2016-10-25T12:49:48.946Z,994.38
2016-10-25T12:50:57.651Z,994.33
2016-10-25T12:52:06.402Z,994.36
2016-10-25T12:53:15.101Z,994.33
2016-10-25T12:54:23.902Z,994.32
2016-10-25T12:55:32.592Z,994.31
2016-10-25T12:56:41.324Z,994.34
2016-10-25T12:57:50.024Z,994.3
2016-10-25T12:58:58.722Z,994.32
2016-10-25T13:00:07.474Z,994.31
2016-10-25T13:01:16.201Z,994.34
2016-10-25T13:02:24.903Z,994.32
2016-10-25T13:03:33.619Z,994.35
2016-10-25T13:04:42.351Z,994.33
2016-10-25T13:05:51.152Z,994.33
2016-10-25T13:06:59.946Z,994.29
2016-10-25T13:08:08.649Z,994.28
2016-10-25T13:09:17.374Z,994.31
2016-10-25T13:10:26.096Z,994.34
2016-10-25T13:11:35.155Z,994.34
2016-10-25T13:12:43.857Z,994.31
2016-10-25T13:13:52.563Z,994.29
2016-10-25T13:15:01.260Z,994.29
2016-10-25T13:16:09.976Z,994.28
2016-10-25T13:17:18.720Z,994.26
2016-10-25T13:18:27.421Z,994.24
2016-10-25T13:19:36.117Z,994.25
2016-10-25T13:20:44.813Z,994.24
2016-10-25T13:21:53.509Z,994.26
2016-10-25T13:23:02.257Z,994.25
2016-10-25T13:24:10.965Z,994.21
2016-10-25T13:25:19.667Z,994.21
2016-10-25T13:26:28.384Z,994.22
2016-10-25T13:27:37.087Z,994.25
2016-10-25T13:28:45.868Z,994.22
2016-10-25T13:29:54.566Z,994.17
2016-10-25T13:31:03.270Z,994.22
2016-10-25T13:32:11.966Z,994.18
2016-10-25T13:33:20.663Z,994.15
2016-10-25T13:34:29.411Z,994.14
2016-10-25T13:35:38.112Z,994.15
2016-10-25T13:36:46.816Z,994.16
2016-10-25T13:37:55.515Z,994.15
2016-10-25T13:39:04.216Z,994.13
2016-10-25T13:40:12.966Z,994.09
2016-10-25T13:41:21.663Z,994.07
2016-10-25T13:42:30.404Z,994.05
2016-10-25T13:43:39.102Z,994.06
2016-10-25T13:44:47.805Z,994.08
2016-10-25T13:45:56.555Z,994.05
2016-10-25T13:47:05.260Z,994.11
2016-10-25T13:48:13.959Z,994.04
2016-10-25T13:49:22.655Z,994.05
2016-10-25T13:50:31.352Z,994.04
2016-10-25T13:51:40.102Z,994.02
2016-10-25T13:52:48.837Z,994.06
2016-10-25T13:53:57.542Z,994.07
2016-10-25T13:55:06.557Z,994.07
2016-10-25T13:56:15.271Z,994.03
2016-10-25T13:57:24.016Z,994.03
2016-10-25T13:58:33.041Z,993.98
2016-10-25T13:59:41.774Z,994.05
2016-10-25T14:00:50.479Z,994.04
2016-10-25T14:01:59.186Z,994.08
2016-10-25T14:03:07.941Z,994.08
2016-10-25T14:04:16.636Z,994.07
2016-10-25T14:05:25.337Z,994.1
2016-10-25T14:06:34.035Z,994.02
2016-10-25T14:07:42.732Z,994.03
2016-10-25T14:08:51.487Z,994.03
2016-10-25T14:10:00.186Z,994.05
2016-10-25T14:11:08.924Z,993.99
2016-10-25T14:12:17.963Z,993.99
2016-10-25T14:13:26.658Z,993.95
2016-10-25T14:14:35.458Z,993.94
2016-10-25T14:15:44.478Z,993.92
2016-10-25T14:16:53.498Z,993.91
2016-10-25T14:18:02.200Z,993.92
2016-10-25T14:19:10.901Z,993.97
2016-10-25T14:20:19.855Z,993.97
2016-10-25T14:21:28.558Z,993.95
2016-10-25T14:22:37.264Z,993.94